createdAt,value
2019-05-13T00:01:47.081Z,95.40
2019-05-13T00:04:17.621Z,95.50
2019-05-13T00:06:53.903Z,95.60
2019-05-13T00:09:20.363Z,95.60
2019-05-13T00:11:50.849Z,95.50
2019-05-13T00:14:21.319Z,95.40
2019-05-13T00:16:53.659Z,95.50
2019-05-13T00:19:24.295Z,95.50
2019-05-13T00:21:54.790Z,95.60
2019-05-13T00:24:25.260Z,95.50
2019-05-13T00:26:55.749Z,95.40
2019-05-13T00:29:26.217Z,95.50
2019-05-13T00:31:56.712Z,95.60
2019-05-13T00:34:27.192Z,95.40
2019-05-13T00:37:07.620Z,95.40
2019-05-13T00:39:29.855Z,95.60
2019-05-13T00:42:00.350Z,95.40
2019-05-13T00:44:30.851Z,95.60
2019-05-13T00:47:01.333Z,95.40
2019-05-13T00:49:31.826Z,95.50
2019-05-13T00:52:03.859Z,95.30
2019-05-13T00:54:34.622Z,95.60
2019-05-13T00:57:05.557Z,95.80
2019-05-13T00:59:36.063Z,96.00
2019-05-13T01:02:06.614Z,95.90
2019-05-13T01:04:37.107Z,95.60
2019-05-13T01:07:15.406Z,95.50
2019-05-13T01:09:39.771Z,95.70
2019-05-13T01:12:10.298Z,95.40
2019-05-13T01:14:43.087Z,95.70
2019-05-13T01:17:14.171Z,95.50
2019-05-13T01:19:44.797Z,95.50
2019-05-13T01:22:15.334Z,95.70
2019-05-13T01:24:45.837Z,95.80
2019-05-13T01:27:16.298Z,95.90
2019-05-13T01:29:46.804Z,95.90
2019-05-13T01:32:17.296Z,95.90
2019-05-13T01:34:47.774Z,96.00
2019-05-13T01:37:18.264Z,96.00
2019-05-13T01:39:48.801Z,95.70
2019-05-13T01:42:19.288Z,95.60
2019-05-13T01:44:49.760Z,95.60
2019-05-13T01:47:20.249Z,95.20
2019-05-13T01:49:50.716Z,95.30
2019-05-13T01:52:23.637Z,95.50
2019-05-13T01:54:54.430Z,95.30
2019-05-13T01:57:24.946Z,95.40
2019-05-13T01:59:55.427Z,95.30
2019-05-13T02:02:25.896Z,95.40
2019-05-13T02:04:56.362Z,95.20
2019-05-13T02:07:26.858Z,95.50
2019-05-13T02:09:58.227Z,95.60
2019-05-13T02:12:29.172Z,95.40
2019-05-13T02:14:59.674Z,95.20
2019-05-13T02:17:30.154Z,95.40
2019-05-13T02:20:00.641Z,95.30
2019-05-13T02:22:33.513Z,95.20
2019-05-13T02:25:04.492Z,95.20
2019-05-13T02:27:35.105Z,95.20
2019-05-13T02:30:06.832Z,95.30
2019-05-13T02:32:37.367Z,95.40
2019-05-13T02:35:07.943Z,95.60
2019-05-13T02:37:38.453Z,95.40
2019-05-13T02:40:09.166Z,95.50
2019-05-13T02:42:43.246Z,95.60
2019-05-13T02:45:13.899Z,95.90
2019-05-13T02:47:44.584Z,95.40
2019-05-13T02:50:15.557Z,95.40
2019-05-13T02:52:46.098Z,95.10
2019-05-13T02:55:16.717Z,95.20
2019-05-13T02:57:47.225Z,95.00
2019-05-13T03:00:18.522Z,95.20
2019-05-13T03:02:52.258Z,95.10
2019-05-13T03:05:22.137Z,95.10
2019-05-13T03:07:53.217Z,95.00
2019-05-13T03:10:23.895Z,95.10
2019-05-13T03:12:54.352Z,94.90
2019-05-13T03:15:26.504Z,94.90
2019-05-13T03:18:05.931Z,95.00
2019-05-13T03:20:36.608Z,94.80
2019-05-13T03:23:07.144Z,94.70
2019-05-13T03:25:37.645Z,94.70
2019-05-13T03:28:08.141Z,95.30
2019-05-13T03:30:38.697Z,95.00
2019-05-13T03:33:11.543Z,95.20
2019-05-13T03:35:45.436Z,95.20
2019-05-13T03:38:13.738Z,95.10
2019-05-13T03:40:44.244Z,95.20
2019-05-13T03:43:17.230Z,95.30
2019-05-13T03:45:52.608Z,95.40
2019-05-13T03:48:23.840Z,95.00
2019-05-13T03:50:55.267Z,95.30
2019-05-13T03:53:25.728Z,95.10
2019-05-13T03:55:56.468Z,95.00
2019-05-13T03:58:32.165Z,95.10
2019-05-13T04:01:02.768Z,95.30
2019-05-13T04:03:33.682Z,94.90
2019-05-13T04:06:04.371Z,95.10
2019-05-13T04:08:34.933Z,95.00
2019-05-13T04:11:05.511Z,94.90
2019-05-13T04:13:36.090Z,94.80
2019-05-13T04:16:06.705Z,94.70
2019-05-13T04:18:37.351Z,94.90
2019-05-13T04:21:07.811Z,94.70
2019-05-13T04:23:38.395Z,94.70
2019-05-13T04:26:08.889Z,94.30
2019-05-13T04:28:43.135Z,94.20
2019-05-13T04:31:14.116Z,94.40
2019-05-13T04:33:43.855Z,94.30
2019-05-13T04:36:14.482Z,94.10
2019-05-13T04:38:45.477Z,94.10
2019-05-13T04:41:16.117Z,94.00
2019-05-13T04:43:46.653Z,93.80
2019-05-13T04:46:17.147Z,93.70
2019-05-13T04:48:47.775Z,93.30
2019-05-13T04:51:18.388Z,93.60
2019-05-13T04:53:53.694Z,93.50
2019-05-13T04:56:22.364Z,93.20
2019-05-13T04:58:53.196Z,92.90
2019-05-13T05:02:03.902Z,93.00
2019-05-13T05:04:52.473Z,93.20
2019-05-13T05:07:46.935Z,92.60
2019-05-13T05:10:55.521Z,92.70
2019-05-13T05:14:02.490Z,92.40
2019-05-13T05:16:44.729Z,92.30
2019-05-13T05:19:54.560Z,92.10
2019-05-13T05:23:03.342Z,92.30
2019-05-13T05:26:01.139Z,92.20
2019-05-13T05:28:41.920Z,92.00
2019-05-13T05:31:41.427Z,92.00
2019-05-13T05:34:29.266Z,92.20
2019-05-13T05:37:37.564Z,92.20
2019-05-13T05:40:08.443Z,92.20
2019-05-13T05:42:43.181Z,93.70
2019-05-13T05:45:16.294Z,93.00
2019-05-13T05:47:47.433Z,91.90
2019-05-13T05:50:18.093Z,91.50
2019-05-13T05:52:51.374Z,91.70
2019-05-13T05:55:24.449Z,91.50
2019-05-13T05:57:56.860Z,91.20
2019-05-13T06:00:27.403Z,90.80
2019-05-13T06:02:58.732Z,91.10
2019-05-13T06:05:31.776Z,90.50
2019-05-13T06:08:02.033Z,90.30
2019-05-13T06:10:46.235Z,90.70
2019-05-13T06:13:05.612Z,90.80
2019-05-13T06:15:36.188Z,90.00
2019-05-13T06:18:06.726Z,90.40
2019-05-13T06:20:37.312Z,90.20
2019-05-13T06:23:07.785Z,90.00
2019-05-13T06:25:38.424Z,90.10
2019-05-13T06:28:08.947Z,90.20
2019-05-13T06:30:41.406Z,90.10
2019-05-13T06:33:12.228Z,89.70
2019-05-13T06:35:45.006Z,89.70
2019-05-13T06:38:15.565Z,89.10
2019-05-13T06:40:59.457Z,88.80
2019-05-13T06:43:18.222Z,88.70
2019-05-13T06:45:48.680Z,89.70
2019-05-13T06:48:23.078Z,88.10
2019-05-13T06:50:53.331Z,87.90
2019-05-13T06:53:23.821Z,89.00
2019-05-13T06:55:54.309Z,88.70
2019-05-13T06:58:24.865Z,88.00
2019-05-13T07:00:57.962Z,87.30
2019-05-13T07:03:27.561Z,87.50
2019-05-13T07:05:58.121Z,88.00
2019-05-13T07:08:31.453Z,87.10
2019-05-13T07:11:17.254Z,87.00
2019-05-13T07:13:34.232Z,87.70
2019-05-13T07:16:04.785Z,86.50
2019-05-13T07:18:35.338Z,87.90
2019-05-13T07:21:05.878Z,86.60
2019-05-13T07:23:36.400Z,87.00
2019-05-13T07:26:06.863Z,86.00
2019-05-13T07:28:37.368Z,87.40
2019-05-13T07:31:07.829Z,88.10
2019-05-13T07:33:38.484Z,85.60
2019-05-13T07:36:09.092Z,86.20
2019-05-13T07:38:41.559Z,85.40
2019-05-13T07:41:12.832Z,84.50
2019-05-13T07:43:43.317Z,85.10
2019-05-13T07:46:13.787Z,85.30
2019-05-13T07:48:45.305Z,84.80
2019-05-13T07:51:15.790Z,84.70
2019-05-13T07:53:46.839Z,84.50
2019-05-13T07:56:17.317Z,85.00
2019-05-13T07:58:47.804Z,83.60
2019-05-13T08:01:18.340Z,84.20
2019-05-13T08:03:51.428Z,83.60
2019-05-13T08:06:22.034Z,81.70
2019-05-13T08:08:52.772Z,82.60
2019-05-13T08:11:24.156Z,83.40
2019-05-13T08:13:54.796Z,82.90
2019-05-13T08:16:25.321Z,82.60
2019-05-13T08:18:55.810Z,84.60
2019-05-13T08:21:26.299Z,84.40
2019-05-13T08:23:56.784Z,83.40
2019-05-13T08:26:27.250Z,83.80
2019-05-13T08:29:01.949Z,83.60
2019-05-13T08:31:32.154Z,85.40
2019-05-13T08:34:02.597Z,84.40
2019-05-13T08:36:33.261Z,85.30
2019-05-13T08:39:05.621Z,85.40
2019-05-13T08:41:36.124Z,85.60
2019-05-13T08:44:06.750Z,86.00
2019-05-13T08:46:37.318Z,86.10
2019-05-13T08:49:07.800Z,85.20
2019-05-13T08:51:38.566Z,85.30
2019-05-13T08:54:11.472Z,84.80
2019-05-13T08:56:42.083Z,85.10
2019-05-13T08:59:12.543Z,85.10
2019-05-13T09:01:43.040Z,85.90
2019-05-13T09:04:13.510Z,83.60
2019-05-13T09:06:44.472Z,84.00
2019-05-13T09:09:15.325Z,84.20
2019-05-13T09:11:45.829Z,85.50
2019-05-13T09:14:16.391Z,84.40
2019-05-13T09:16:47.030Z,83.40
2019-05-13T09:19:17.519Z,84.10
2019-05-13T09:21:48.111Z,84.30
2019-05-13T09:24:27.105Z,85.20
2019-05-13T09:26:52.733Z,84.20
2019-05-13T09:29:23.408Z,85.50
2019-05-13T09:31:53.947Z,85.70
2019-05-13T09:34:24.696Z,85.60
2019-05-13T09:36:55.156Z,85.40
2019-05-13T09:39:25.652Z,87.00
2019-05-13T09:41:56.154Z,88.30
2019-05-13T09:44:26.748Z,88.80
2019-05-13T09:46:57.236Z,89.20
2019-05-13T09:49:27.807Z,89.80
2019-05-13T09:52:01.698Z,90.20
2019-05-13T09:54:33.092Z,90.50
2019-05-13T09:57:03.704Z,91.40
2019-05-13T09:59:34.205Z,91.50
2019-05-13T10:02:05.846Z,92.00
2019-05-13T10:04:36.329Z,91.90
2019-05-13T10:07:06.964Z,92.00
2019-05-13T10:09:37.520Z,92.20
2019-05-13T10:12:08.087Z,92.80
2019-05-13T10:14:38.544Z,92.40
2019-05-13T10:17:12.710Z,92.30
2019-05-13T10:19:42.228Z,92.10
2019-05-13T10:22:12.826Z,92.10
2019-05-13T10:24:43.749Z,92.00
2019-05-13T10:27:18.822Z,92.30
2019-05-13T10:29:51.787Z,92.00
2019-05-13T10:32:22.214Z,92.50
2019-05-13T10:34:54.503Z,92.30
2019-05-13T10:37:25.030Z,92.20
2019-05-13T10:39:57.471Z,92.30
2019-05-13T10:42:29.489Z,92.40
2019-05-13T10:45:02.449Z,92.30
2019-05-13T10:47:32.167Z,92.40
2019-05-13T10:50:03.128Z,92.70
2019-05-13T10:52:35.882Z,92.60
2019-05-13T10:55:08.003Z,92.30
2019-05-13T10:57:38.551Z,92.10
2019-05-13T11:00:12.168Z,91.80
2019-05-13T11:02:42.944Z,91.70
2019-05-13T11:05:13.695Z,91.10
2019-05-13T11:07:46.946Z,91.20
2019-05-13T11:10:22.393Z,90.60
2019-05-13T11:12:54.482Z,88.60
2019-05-13T11:15:24.979Z,89.30
2019-05-13T11:17:55.514Z,87.80
2019-05-13T11:20:26.076Z,87.00
2019-05-13T11:22:56.854Z,84.40
2019-05-13T11:25:27.345Z,83.10
2019-05-13T11:27:58.558Z,83.50
2019-05-13T11:30:31.992Z,83.50
2019-05-13T11:33:02.638Z,78.80
2019-05-13T11:35:33.698Z,78.00
2019-05-13T11:38:04.296Z,76.10
2019-05-13T11:40:34.964Z,77.20
2019-05-13T11:43:05.503Z,73.50
2019-05-13T11:45:36.057Z,73.10
2019-05-13T11:48:06.658Z,73.30
2019-05-13T11:50:42.162Z,74.30
2019-05-13T11:53:31.548Z,78.50
2019-05-13T11:55:44.520Z,77.80
2019-05-13T11:58:15.043Z,76.40
2019-05-13T12:00:56.119Z,78.30
2019-05-13T12:03:26.936Z,78.60
2019-05-13T12:05:57.875Z,79.20
2019-05-13T12:08:28.493Z,77.20
2019-05-13T12:10:58.999Z,77.70
2019-05-13T12:13:29.456Z,78.60
2019-05-13T12:16:03.709Z,78.00
2019-05-13T12:18:34.636Z,75.20
2019-05-13T12:21:05.157Z,77.20
2019-05-13T12:23:35.620Z,77.40
2019-05-13T12:26:06.106Z,78.10
2019-05-13T12:28:36.622Z,76.80
2019-05-13T12:31:07.080Z,74.70
2019-05-13T12:33:37.588Z,75.60
2019-05-13T12:36:14.844Z,72.70
2019-05-13T12:38:44.024Z,69.40
2019-05-13T12:41:13.042Z,65.10
2019-05-13T12:43:43.644Z,63.10
2019-05-13T12:46:14.182Z,61.40
2019-05-13T12:48:44.733Z,62.50
2019-05-13T12:51:15.264Z,60.20
2019-05-13T12:53:46.338Z,56.90
2019-05-13T12:56:16.799Z,53.50
2019-05-13T12:58:47.306Z,56.10
2019-05-13T13:01:17.755Z,53.90
2019-05-13T13:03:48.241Z,55.20
2019-05-13T13:06:35.259Z,57.80
2019-05-13T13:08:51.070Z,58.80
2019-05-13T13:11:22.838Z,59.70
2019-05-13T13:13:59.350Z,62.50
2019-05-13T13:16:33.996Z,64.30
2019-05-13T13:18:58.126Z,64.40
2019-05-13T13:21:33.639Z,65.30
2019-05-13T13:24:04.410Z,67.60
2019-05-13T13:26:33.752Z,67.30
2019-05-13T13:29:04.577Z,69.20
2019-05-13T13:31:35.196Z,69.90
2019-05-13T13:34:11.991Z,71.20
2019-05-13T13:36:37.873Z,72.00
2019-05-13T13:39:13.721Z,72.90
2019-05-13T13:41:43.810Z,74.00
2019-05-13T13:44:15.673Z,75.00
2019-05-13T13:46:49.404Z,75.70
2019-05-13T13:49:18.338Z,74.90
2019-05-13T13:51:48.813Z,75.30
2019-05-13T13:54:22.169Z,76.30
2019-05-13T13:56:56.022Z,74.90
2019-05-13T13:59:25.018Z,73.50
2019-05-13T14:01:55.863Z,73.20
2019-05-13T14:04:26.347Z,72.30
2019-05-13T14:09:29.233Z,71.30
2019-05-13T14:12:01.862Z,71.80
2019-05-13T14:14:32.061Z,66.80
2019-05-13T14:17:02.583Z,68.30
2019-05-13T14:19:33.137Z,70.10
2019-05-13T14:22:03.605Z,63.80
2019-05-13T14:24:34.117Z,62.60
2019-05-13T14:27:04.715Z,60.10
2019-05-13T14:29:41.100Z,60.70
2019-05-13T14:32:07.499Z,60.40
2019-05-13T14:34:38.056Z,59.10
2019-05-13T14:37:08.558Z,58.30
2019-05-13T14:39:39.030Z,56.00
2019-05-13T14:42:11.717Z,56.80
2019-05-13T14:44:41.762Z,55.70
2019-05-13T14:47:12.664Z,55.00
2019-05-13T14:49:44.749Z,54.10
2019-05-13T14:52:15.251Z,52.10
2019-05-13T14:54:45.709Z,52.50
2019-05-13T14:57:16.216Z,52.70
2019-05-13T14:59:46.663Z,50.80
2019-05-13T15:02:17.165Z,51.60
2019-05-13T15:04:47.649Z,51.30
2019-05-13T15:07:18.284Z,51.70
2019-05-13T15:09:51.330Z,48.30
2019-05-13T15:12:21.629Z,48.90
2019-05-13T15:14:52.551Z,47.30
2019-05-13T15:17:23.140Z,48.90
2019-05-13T15:19:53.890Z,48.80
2019-05-13T15:22:24.384Z,48.90
2019-05-13T15:24:54.847Z,48.60
2019-05-13T15:27:25.336Z,48.40
2019-05-13T15:29:55.801Z,48.70
2019-05-13T15:32:26.567Z,49.40
2019-05-13T15:34:57.213Z,48.90
2019-05-13T15:37:27.707Z,49.20
2019-05-13T15:39:58.175Z,49.30
2019-05-13T15:42:28.698Z,50.00
2019-05-13T15:45:01.608Z,48.40
2019-05-13T15:47:31.451Z,48.80
2019-05-13T15:50:02.505Z,48.50
2019-05-13T15:52:33.566Z,47.60
2019-05-13T15:55:05.413Z,49.00
2019-05-13T15:57:35.898Z,47.90
2019-05-13T16:00:08.379Z,48.00
2019-05-13T16:02:38.842Z,47.80
2019-05-13T16:05:11.763Z,47.90
2019-05-13T16:07:42.042Z,47.10
2019-05-13T16:10:12.943Z,46.80
2019-05-13T16:12:43.419Z,46.60
2019-05-13T16:15:15.785Z,46.50
2019-05-13T16:17:46.214Z,45.60
2019-05-13T16:20:16.827Z,45.30
2019-05-13T16:22:47.316Z,44.60
2019-05-13T16:25:18.056Z,44.40
2019-05-13T16:27:48.545Z,44.70
2019-05-13T16:30:19.224Z,44.30
2019-05-13T16:32:52.161Z,45.20
2019-05-13T16:35:21.897Z,44.70
2019-05-13T16:37:56.117Z,44.00
2019-05-13T16:40:26.607Z,43.60
2019-05-13T16:42:57.063Z,44.90
2019-05-13T16:45:27.546Z,44.80
2019-05-13T16:48:03.046Z,45.30
2019-05-13T16:50:31.275Z,45.30
2019-05-13T16:53:02.054Z,45.50
2019-05-13T16:55:32.829Z,45.10
2019-05-13T16:58:03.370Z,46.00
2019-05-13T17:00:33.952Z,45.80
2019-05-13T17:03:04.481Z,45.40
2019-05-13T17:05:35.010Z,46.50
2019-05-13T17:08:05.564Z,46.60
2019-05-13T17:10:36.046Z,47.20
2019-05-13T17:13:06.531Z,47.10
2019-05-13T17:15:37.019Z,47.20
2019-05-13T17:18:11.884Z,47.30
2019-05-13T17:20:41.411Z,48.20
2019-05-13T17:23:12.589Z,49.00
2019-05-13T17:25:43.175Z,48.50
2019-05-13T17:28:13.660Z,48.60
2019-05-13T17:30:44.588Z,50.10
2019-05-13T17:33:15.090Z,50.00
2019-05-13T17:35:45.658Z,50.70
2019-05-13T17:38:16.164Z,50.60
2019-05-13T17:40:50.017Z,51.60
2019-05-13T17:43:21.306Z,51.90
2019-05-13T17:45:52.430Z,51.90
2019-05-13T17:48:29.095Z,52.80
2019-05-13T17:50:55.217Z,52.80
2019-05-13T17:53:25.744Z,53.30
2019-05-13T17:55:56.328Z,54.10
2019-05-13T17:58:26.794Z,54.00
2019-05-13T18:00:57.424Z,54.20
2019-05-13T18:03:27.973Z,54.30
2019-05-13T18:05:58.465Z,55.20
2019-05-13T18:08:28.930Z,55.30
2019-05-13T18:11:01.927Z,56.10
2019-05-13T18:13:32.195Z,55.90
2019-05-13T18:16:03.110Z,55.60
2019-05-13T18:18:43.042Z,55.80
2019-05-13T18:21:06.035Z,55.50
2019-05-13T18:23:36.546Z,56.20
2019-05-13T18:26:07.021Z,57.30
2019-05-13T18:28:37.521Z,57.20
2019-05-13T18:31:08.030Z,57.10
2019-05-13T18:33:38.528Z,57.20
2019-05-13T18:36:09.019Z,57.40
2019-05-13T18:38:41.712Z,57.20
2019-05-13T18:41:12.547Z,57.40
2019-05-13T18:43:43.006Z,58.20
2019-05-13T18:46:13.507Z,57.20
2019-05-13T18:48:58.103Z,57.70
2019-05-13T18:51:16.735Z,58.30
2019-05-13T18:53:47.224Z,57.80
2019-05-13T18:56:17.679Z,59.20
2019-05-13T18:58:48.173Z,57.70
2019-05-13T19:01:18.716Z,58.80
2019-05-13T19:03:49.211Z,58.50
2019-05-13T19:06:22.218Z,58.60
2019-05-13T19:08:52.824Z,59.50
2019-05-13T19:11:23.510Z,58.30
2019-05-13T19:13:54.003Z,58.50
2019-05-13T19:16:24.544Z,58.90
2019-05-13T19:18:55.032Z,59.40
2019-05-13T19:21:25.506Z,60.20
2019-05-13T19:23:56.004Z,60.90
2019-05-13T19:26:26.481Z,61.70
2019-05-13T19:28:56.980Z,62.40
2019-05-13T19:31:29.063Z,61.90
2019-05-13T19:34:01.468Z,62.20
2019-05-13T19:36:32.120Z,62.80
2019-05-13T19:39:02.610Z,64.20
2019-05-13T19:41:33.105Z,65.70
2019-05-13T19:44:03.583Z,66.30
2019-05-13T19:46:34.151Z,66.90
2019-05-13T19:49:04.640Z,67.30
2019-05-13T19:51:35.220Z,68.30
2019-05-13T19:54:05.721Z,68.20
2019-05-13T19:56:37.144Z,68.60
2019-05-13T19:59:07.610Z,69.70
2019-05-13T20:01:38.129Z,69.60
2019-05-13T20:04:08.661Z,70.00
2019-05-13T20:06:41.283Z,71.20
2019-05-13T20:09:11.366Z,70.80
2019-05-13T20:11:42.115Z,71.60
2019-05-13T20:14:12.738Z,69.30
2019-05-13T20:16:43.235Z,70.10
2019-05-13T20:19:13.832Z,71.30
2019-05-13T20:21:44.322Z,71.70
2019-05-13T20:24:14.851Z,72.00
2019-05-13T20:26:45.358Z,72.10
2019-05-13T20:29:15.942Z,72.00
2019-05-13T20:31:46.429Z,72.40
2019-05-13T20:34:16.922Z,73.00
2019-05-13T20:36:47.429Z,74.10
2019-05-13T20:39:17.936Z,73.80
2019-05-13T20:41:48.450Z,74.70
2019-05-13T20:44:18.912Z,74.80
2019-05-13T20:46:51.686Z,75.40
2019-05-13T20:49:21.923Z,76.00
2019-05-13T20:51:53.911Z,77.40
2019-05-13T20:54:24.398Z,78.50
2019-05-13T20:56:54.870Z,78.30
2019-05-13T20:59:25.336Z,79.50
2019-05-13T21:01:55.826Z,80.40
2019-05-13T21:04:26.318Z,79.70
2019-05-13T21:06:56.766Z,80.60
2019-05-13T21:09:27.242Z,81.90
2019-05-13T21:11:57.701Z,82.10
2019-05-13T21:14:28.252Z,82.30
2019-05-13T21:16:58.703Z,83.20
2019-05-13T21:19:38.710Z,83.60
2019-05-13T21:22:01.492Z,83.90
2019-05-13T21:24:32.059Z,84.90
2019-05-13T21:27:02.511Z,85.80
2019-05-13T21:29:32.988Z,87.20
2019-05-13T21:32:03.510Z,87.70
2019-05-13T21:34:34.001Z,88.10
2019-05-13T21:37:04.459Z,88.50
2019-05-13T21:39:34.933Z,87.60
2019-05-13T21:42:05.386Z,88.40
2019-05-13T21:44:35.862Z,88.20
2019-05-13T21:47:06.335Z,88.20
2019-05-13T21:49:38.481Z,87.30
2019-05-13T21:52:09.217Z,87.20
2019-05-13T21:54:42.011Z,87.50
2019-05-13T21:57:12.795Z,87.80
2019-05-13T21:59:45.105Z,88.30
2019-05-13T22:02:15.513Z,87.60
2019-05-13T22:04:46.041Z,87.80
2019-05-13T22:07:18.062Z,87.90
2019-05-13T22:09:48.605Z,87.70
2019-05-13T22:12:21.525Z,88.20
2019-05-13T22:14:51.724Z,89.50
2019-05-13T22:17:22.311Z,89.90
2019-05-13T22:19:52.805Z,90.10
2019-05-13T22:22:23.527Z,90.80
2019-05-13T22:24:54.077Z,90.80
2019-05-13T22:27:24.547Z,91.00
2019-05-13T22:29:55.019Z,91.10
2019-05-13T22:32:25.471Z,91.40
2019-05-13T22:34:55.948Z,91.40
2019-05-13T22:37:27.066Z,91.00
2019-05-13T22:39:57.559Z,91.10
2019-05-13T22:42:28.034Z,91.40
2019-05-13T22:44:58.512Z,91.50
2019-05-13T22:47:31.368Z,91.50
2019-05-13T22:50:02.043Z,91.90
2019-05-13T22:52:33.178Z,92.30
2019-05-13T22:55:04.969Z,92.40
2019-05-13T22:57:35.453Z,92.60
2019-05-13T23:00:09.034Z,92.60
2019-05-13T23:02:41.995Z,93.10
2019-05-13T23:05:11.729Z,93.40
2019-05-13T23:07:42.232Z,93.60
2019-05-13T23:10:13.010Z,93.90
2019-05-13T23:12:43.569Z,93.90
2019-05-13T23:15:14.165Z,94.30
2019-05-13T23:17:44.649Z,94.00
2019-05-13T23:20:15.211Z,94.20
2019-05-13T23:22:45.671Z,94.00
2019-05-13T23:25:16.211Z,94.10
2019-05-13T23:27:46.676Z,94.20
2019-05-13T23:30:17.298Z,94.80
2019-05-13T23:32:48.264Z,94.50
2019-05-13T23:35:18.741Z,94.40
2019-05-13T23:37:51.030Z,94.40
2019-05-13T23:40:21.771Z,94.80
2019-05-13T23:42:52.324Z,94.80
2019-05-13T23:45:24.245Z,94.70
2019-05-13T23:47:54.722Z,95.00
2019-05-13T23:50:25.212Z,95.40
2019-05-13T23:52:55.695Z,94.90
2019-05-13T23:55:26.242Z,95.10
2019-05-13T23:57:56.692Z,95.20
